Dades meteomassalio
Diari Summary for Noviembre 8, 2017 Units:  Metric    English   Both
« Previous Day
Next Day »
Diari Semanal Mensual Anual Personalitzat
  Maxima: Minima: Mijana:
Temperatura: 15.0 °C 6.1 °C 10.4 °C
Rosada: 6.1 °C 1.8 °C 3.8 °C
Humitat: 75 % 50 % 64 %
Velocitat del vent: 55.5 km/h 5.6 km/h 31.3 km/h
Racha vent: 55.5 km/h - -
Vent:- - NW
Pressio: 1026.3 hPa 1021.6 hPa -
Pluja: 0.0 mm    
Historical Graphs
 
 
Tabular Data for Noviembre 8, 2017
Time Temperature Dew Point Pressure Wind Wind Speed Wind Gust Humidity Rainfall Rate (Hourly) solar Conditions
00:02 10.6 °C 2.6 °C 1021.9 hPa NW 29.6 km/h 29.6 km/h 58 % 0.0 mm 0.0 W/m2 CLR
00:07 10.6 °C 2.9 °C 1021.6 hPa NW 42.6 km/h 42.6 km/h 59 % 0.0 mm 0.0 W/m2 CLR
00:12 10.6 °C 2.9 °C 1021.9 hPa NW 37.0 km/h 37.0 km/h 59 % 0.0 mm 0.0 W/m2 CLR
00:17 10.6 °C 3.1 °C 1021.9 hPa NNW 37.0 km/h 37.0 km/h 60 % 0.0 mm 0.0 W/m2 CLR
00:22 10.6 °C 3.1 °C 1021.9 hPa NW 35.4 km/h 35.4 km/h 60 % 0.0 mm 0.0 W/m2 CLR
00:27 10.6 °C 3.3 °C 1021.9 hPa NNW 42.6 km/h 42.6 km/h 61 % 0.0 mm 0.0 W/m2 CLR
00:37 10.6 °C 3.3 °C 1021.9 hPa NW 40.7 km/h 40.7 km/h 61 % 0.0 mm 0.0 W/m2 CLR
00:42 10.6 °C 3.6 °C 1021.9 hPa NW 40.7 km/h 40.7 km/h 62 % 0.0 mm 0.0 W/m2 CLR
00:47 10.6 °C 3.6 °C 1021.9 hPa NNW 33.3 km/h 33.3 km/h 62 % 0.0 mm 0.0 W/m2 CLR
00:52 10.6 °C 3.8 °C 1021.9 hPa NNW 31.5 km/h 31.5 km/h 63 % 0.0 mm 0.0 W/m2 CLR
00:57 10.6 °C 3.8 °C 1021.9 hPa NW 35.4 km/h 35.4 km/h 63 % 0.0 mm 0.0 W/m2 CLR
01:02 10.6 °C 4.0 °C 1021.9 hPa NNW 40.7 km/h 40.7 km/h 64 % 0.0 mm 0.0 W/m2 CLR
01:07 10.6 °C 4.2 °C 1021.9 hPa WNW 38.9 km/h 38.9 km/h 65 % 0.0 mm 0.0 W/m2 CLR
01:12 10.6 °C 4.2 °C 1022.2 hPa NNW 35.2 km/h 35.2 km/h 65 % 0.0 mm 0.0 W/m2 CLR
01:17 10.6 °C 4.2 °C 1022.2 hPa WNW 31.5 km/h 31.5 km/h 65 % 0.0 mm 0.0 W/m2 CLR
01:22 10.6 °C 4.4 °C 1021.9 hPa NNW 38.6 km/h 38.6 km/h 66 % 0.0 mm 0.0 W/m2 CLR
01:28 10.6 °C 4.4 °C 1021.9 hPa NNW 31.5 km/h 31.5 km/h 66 % 0.0 mm 0.0 W/m2 CLR
01:38 10.6 °C 4.7 °C 1021.9 hPa NW 42.6 km/h 42.6 km/h 67 % 0.0 mm 0.0 W/m2 CLR
01:43 11.1 °C 5.0 °C 1022.2 hPa NW 42.6 km/h 42.6 km/h 66 % 0.0 mm 0.0 W/m2 CLR
01:48 11.1 °C 5.2 °C 1022.2 hPa NW 32.2 km/h 32.2 km/h 67 % 0.0 mm 0.0 W/m2 CLR
01:53 10.6 °C 4.7 °C 1022.2 hPa NNW 29.6 km/h 29.6 km/h 67 % 0.0 mm 0.0 W/m2 CLR
01:58 10.6 °C 4.9 °C 1022.2 hPa NW 29.6 km/h 29.6 km/h 68 % 0.0 mm 0.0 W/m2 CLR
02:03 10.6 °C 4.9 °C 1022.2 hPa NW 31.5 km/h 31.5 km/h 68 % 0.0 mm 0.0 W/m2 CLR
02:08 11.1 °C 5.4 °C 1022.2 hPa NNW 38.9 km/h 38.9 km/h 68 % 0.0 mm 0.0 W/m2 CLR
02:13 11.1 °C 5.4 °C 1022.2 hPa NW 33.3 km/h 33.3 km/h 68 % 0.0 mm 0.0 W/m2 CLR
02:18 11.1 °C 5.4 °C 1022.6 hPa NNW 25.9 km/h 25.9 km/h 68 % 0.0 mm 0.0 W/m2 CLR
02:23 11.1 °C 5.4 °C 1022.6 hPa NW 31.5 km/h 31.5 km/h 68 % 0.0 mm 0.0 W/m2 CLR
02:28 11.1 °C 5.6 °C 1022.6 hPa NW 31.5 km/h 31.5 km/h 69 % 0.0 mm 0.0 W/m2 CLR
02:33 11.1 °C 5.6 °C 1022.6 hPa WNW 29.6 km/h 29.6 km/h 69 % 0.0 mm 0.0 W/m2 CLR
02:38 11.1 °C 5.6 °C 1022.6 hPa NNW 31.5 km/h 31.5 km/h 69 % 0.0 mm 0.0 W/m2 CLR
02:43 11.1 °C 5.6 °C 1022.6 hPa NW 24.1 km/h 24.1 km/h 69 % 0.0 mm 0.0 W/m2 CLR
02:48 11.1 °C 5.6 °C 1022.6 hPa NW 31.5 km/h 31.5 km/h 69 % 0.0 mm 0.0 W/m2 CLR
02:53 11.1 °C 5.6 °C 1022.6 hPa NW 22.2 km/h 22.2 km/h 69 % 0.0 mm 0.0 W/m2 CLR
02:58 11.1 °C 5.8 °C 1022.9 hPa NW 18.5 km/h 18.5 km/h 70 % 0.0 mm 0.0 W/m2 CLR
03:08 11.1 °C 5.8 °C 1022.9 hPa NNW 29.6 km/h 29.6 km/h 70 % 0.0 mm 0.0 W/m2 CLR
03:13 11.1 °C 6.1 °C 1022.9 hPa NNW 27.8 km/h 27.8 km/h 71 % 0.0 mm 0.0 W/m2 CLR
03:18 11.1 °C 6.1 °C 1022.6 hPa NW 22.2 km/h 22.2 km/h 71 % 0.0 mm 0.0 W/m2 CLR
03:23 11.1 °C 6.1 °C 1022.6 hPa WNW 24.1 km/h 24.1 km/h 71 % 0.0 mm 0.0 W/m2 CLR
03:28 11.1 °C 6.1 °C 1022.6 hPa NW 20.9 km/h 20.9 km/h 71 % 0.0 mm 0.0 W/m2 CLR
03:38 10.6 °C 5.7 °C 1022.9 hPa NW 31.5 km/h 31.5 km/h 72 % 0.0 mm 0.0 W/m2 CLR
03:48 10.6 °C 5.7 °C 1022.9 hPa NW 25.9 km/h 25.9 km/h 72 % 0.0 mm 0.0 W/m2 CLR
03:53 10.6 °C 5.5 °C 1022.9 hPa NNW 27.8 km/h 27.8 km/h 71 % 0.0 mm 0.0 W/m2 CLR
03:58 10.6 °C 5.5 °C 1022.6 hPa NNW 29.6 km/h 29.6 km/h 71 % 0.0 mm 0.0 W/m2 CLR
04:03 10.6 °C 5.5 °C 1022.6 hPa North 37.0 km/h 37.0 km/h 71 % 0.0 mm 0.0 W/m2 CLR
04:08 10.6 °C 5.5 °C 1022.6 hPa North 29.6 km/h 29.6 km/h 71 % 0.0 mm 0.0 W/m2 CLR
04:14 10.6 °C 5.5 °C 1022.6 hPa NW 25.9 km/h 25.9 km/h 71 % 0.0 mm 0.0 W/m2 CLR
04:19 10.6 °C 5.5 °C 1022.9 hPa NNW 25.9 km/h 25.9 km/h 71 % 0.0 mm 0.0 W/m2 CLR
04:20 10.6 °C 5.5 °C 1022.9 hPa WNW 25.9 km/h 25.9 km/h 71 % 0.0 mm 0.0 W/m2 CLR
04:21 10.6 °C 5.5 °C 1022.9 hPa NW 24.1 km/h 24.1 km/h 71 % 0.0 mm 0.0 W/m2 CLR
04:26 10.6 °C 5.5 °C 1022.9 hPa NNW 20.9 km/h 20.9 km/h 71 % 0.0 mm 0.0 W/m2 CLR
04:31 10.6 °C 5.5 °C 1022.9 hPa North 19.3 km/h 19.3 km/h 71 % 0.0 mm 0.0 W/m2 CLR
04:36 10.6 °C 5.5 °C 1022.9 hPa NNW 22.2 km/h 22.2 km/h 71 % 0.0 mm 0.0 W/m2 CLR
04:46 10.0 °C 5.2 °C 1022.9 hPa NW 13.0 km/h 13.0 km/h 72 % 0.0 mm 0.0 W/m2 CLR
04:51 10.0 °C 5.2 °C 1022.9 hPa NNW 13.0 km/h 13.0 km/h 72 % 0.0 mm 0.0 W/m2 CLR
04:56 10.0 °C 5.2 °C 1022.9 hPa NW 13.0 km/h 13.0 km/h 72 % 0.0 mm 0.0 W/m2 CLR
05:01 10.0 °C 5.0 °C 1022.9 hPa NNW 16.7 km/h 16.7 km/h 71 % 0.0 mm 0.0 W/m2 CLR
05:06 10.0 °C 5.0 °C 1022.9 hPa NNW 18.5 km/h 18.5 km/h 71 % 0.0 mm 0.0 W/m2 CLR
05:11 10.0 °C 4.8 °C 1022.9 hPa NW 18.5 km/h 18.5 km/h 70 % 0.0 mm 0.0 W/m2 CLR
05:16 10.0 °C 4.6 °C 1022.9 hPa NNW 18.5 km/h 18.5 km/h 69 % 0.0 mm 0.0 W/m2 CLR
05:21 10.0 °C 4.6 °C 1022.9 hPa ESE 18.5 km/h 18.5 km/h 69 % 0.0 mm 0.0 W/m2 CLR
05:26 10.0 °C 4.3 °C 1022.9 hPa NW 5.6 km/h   68 % 0.0 mm 0.0 W/m2 CLR
05:31 10.0 °C 4.2 °C 1022.9 hPa NNW 22.2 km/h 22.2 km/h 67 % 0.0 mm 0.0 W/m2 CLR
05:36 10.0 °C 4.2 °C 1022.9 hPa WNW 18.5 km/h 18.5 km/h 67 % 0.0 mm 0.0 W/m2 CLR
05:37 10.0 °C 3.9 °C 1022.9 hPa NNW 24.1 km/h 24.1 km/h 66 % 0.0 mm 0.0 W/m2 CLR
05:42 10.0 °C 3.9 °C 1022.9 hPa NNW 24.1 km/h 24.1 km/h 66 % 0.0 mm 0.0 W/m2 CLR
05:47 10.6 °C 4.2 °C 1022.9 hPa North 16.7 km/h 16.7 km/h 65 % 0.0 mm 0.0 W/m2 CLR
05:52 10.6 °C 4.2 °C 1022.9 hPa North 18.5 km/h 18.5 km/h 65 % 0.0 mm 0.0 W/m2 CLR
05:57 10.0 °C 3.7 °C 1022.9 hPa NW 18.5 km/h 18.5 km/h 65 % 0.0 mm 0.0 W/m2 CLR
06:02 10.0 °C 3.7 °C 1022.9 hPa North 18.5 km/h 18.5 km/h 65 % 0.0 mm 0.0 W/m2 CLR
06:07 9.4 °C 3.2 °C 1022.9 hPa NW 20.4 km/h 20.4 km/h 65 % 0.0 mm 0.0 W/m2 CLR
06:12 9.4 °C 3.4 °C 1022.9 hPa NNW 13.0 km/h 13.0 km/h 66 % 0.0 mm 0.0 W/m2 CLR
06:17 9.4 °C 3.4 °C 1022.9 hPa WNW 14.8 km/h 14.8 km/h 66 % 0.0 mm 0.0 W/m2 CLR
06:22 9.4 °C 3.4 °C 1022.9 hPa West 25.7 km/h 25.7 km/h 66 % 0.0 mm 0.0 W/m2 CLR
06:27 9.4 °C 3.6 °C 1022.9 hPa NW 24.1 km/h 24.1 km/h 67 % 0.0 mm 0.0 W/m2 CLR
06:32 9.4 °C 3.8 °C 1023.2 hPa NW 24.1 km/h 24.1 km/h 68 % 0.0 mm 0.0 W/m2 CLR
06:37 9.4 °C 3.8 °C 1023.2 hPa NW 24.1 km/h 24.1 km/h 68 % 0.0 mm 0.0 W/m2 CLR
06:42 9.4 °C 3.8 °C 1022.9 hPa NNW 24.1 km/h 24.1 km/h 68 % 0.0 mm 0.0 W/m2 CLR
06:43 9.4 °C 3.8 °C 1022.9 hPa NW 24.1 km/h 24.1 km/h 68 % 0.0 mm 0.0 W/m2 CLR
06:48 9.4 °C 4.1 °C 1022.9 hPa NW 22.2 km/h 22.2 km/h 69 % 0.0 mm 0.0 W/m2 CLR
06:53 9.4 °C 4.1 °C 1022.9 hPa NW 27.8 km/h 27.8 km/h 69 % 0.0 mm 0.0 W/m2 CLR
06:58 9.4 °C 4.1 °C 1022.9 hPa WNW 22.5 km/h 22.5 km/h 69 % 0.0 mm 0.0 W/m2 CLR
07:03 9.4 °C 4.1 °C 1022.9 hPa WNW 29.0 km/h 29.0 km/h 69 % 0.0 mm 0.0 W/m2 CLR
07:08 9.4 °C 4.1 °C 1022.9 hPa NW 29.6 km/h 29.6 km/h 69 % 0.0 mm 0.0 W/m2 CLR
07:13 9.4 °C 4.1 °C 1022.9 hPa NNW 37.0 km/h 37.0 km/h 69 % 0.0 mm 0.0 W/m2 CLR
07:18 9.4 °C 4.1 °C 1022.9 hPa NW 40.7 km/h 40.7 km/h 69 % 0.0 mm 0.0 W/m2 CLR
07:23 9.4 °C 4.1 °C 1023.2 hPa NW 30.6 km/h 30.6 km/h 69 % 0.0 mm 0.0 W/m2 CLR
07:28 9.4 °C 4.1 °C 1023.2 hPa NW 27.8 km/h 27.8 km/h 69 % 0.0 mm 0.0 W/m2 CLR
07:33 9.4 °C 4.1 °C 1023.2 hPa NW 24.1 km/h 24.1 km/h 69 % 0.0 mm 0.0 W/m2 OVC
07:38 9.4 °C 4.2 °C 1023.2 hPa NW 29.6 km/h 29.6 km/h 70 % 0.0 mm 0.0 W/m2 OVC
07:43 9.4 °C 4.2 °C 1023.2 hPa NW 25.9 km/h 25.9 km/h 70 % 0.0 mm 7.0 W/m2 OVC
07:48 9.4 °C 4.2 °C 1023.2 hPa WNW 25.9 km/h 25.9 km/h 70 % 0.0 mm 7.0 W/m2 OVC
07:53 9.4 °C 4.2 °C 1023.6 hPa NNW 37.0 km/h 37.0 km/h 70 % 0.0 mm 11.0 W/m2 OVC
07:58 9.4 °C 4.2 °C 1023.6 hPa NW 42.6 km/h 42.6 km/h 70 % 0.0 mm 14.0 W/m2 OVC
08:03 9.4 °C 4.2 °C 1023.6 hPa NW 31.5 km/h 31.5 km/h 70 % 0.0 mm 16.0 W/m2 OVC
08:08 8.9 °C 3.7 °C 1023.6 hPa NW 24.1 km/h 24.1 km/h 70 % 0.0 mm 21.0 W/m2 OVC
08:13 9.4 °C 4.1 °C 1023.6 hPa NW 31.5 km/h 31.5 km/h 69 % 0.0 mm 28.0 W/m2 OVC
08:18 9.4 °C 4.1 °C 1023.6 hPa NW 24.1 km/h 24.1 km/h 69 % 0.0 mm 32.0 W/m2 OVC
08:23 9.4 °C 4.1 °C 1023.9 hPa WNW 25.9 km/h 25.9 km/h 69 % 0.0 mm 16.0 W/m2 OVC
08:28 9.4 °C 4.1 °C 1023.9 hPa NW 24.1 km/h 24.1 km/h 69 % 0.0 mm 16.0 W/m2 OVC
08:33 9.4 °C 4.2 °C 1024.3 hPa NNW 24.1 km/h 24.1 km/h 70 % 0.0 mm 18.0 W/m2 OVC
08:43 8.9 °C 3.7 °C 1024.3 hPa NW 24.1 km/h 24.1 km/h 70 % 0.0 mm 21.0 W/m2 BKN
08:48 8.9 °C 3.7 °C 1024.3 hPa NW 22.5 km/h 22.5 km/h 70 % 0.0 mm 81.0 W/m2 BKN
08:53 9.4 °C 4.2 °C 1024.3 hPa NNW 25.9 km/h 25.9 km/h 70 % 0.0 mm 128.0 W/m2 SCT
08:58 9.4 °C 4.2 °C 1024.3 hPa North 31.5 km/h 31.5 km/h 70 % 0.0 mm 144.0 W/m2 CLR
09:03 10.0 °C 4.6 °C 1024.3 hPa WNW 29.6 km/h 29.6 km/h 69 % 0.0 mm 171.0 W/m2 CLR
09:08 10.0 °C 4.3 °C 1024.3 hPa NW 53.7 km/h 53.7 km/h 68 % 0.0 mm 137.0 W/m2 CLR
09:13 10.0 °C 4.3 °C 1024.3 hPa NNW 42.6 km/h 42.6 km/h 68 % 0.0 mm 104.0 W/m2 CLR
09:18 10.6 °C 4.7 °C 1024.3 hPa NW 44.4 km/h 44.4 km/h 67 % 0.0 mm 167.0 W/m2 CLR
09:23 10.6 °C 4.7 °C 1024.3 hPa NW 29.6 km/h 29.6 km/h 67 % 0.0 mm 232.0 W/m2 CLR
09:28 10.6 °C 4.7 °C 1024.3 hPa NW 33.3 km/h 33.3 km/h 67 % 0.0 mm 250.0 W/m2 CLR
09:33 10.6 °C 4.4 °C 1024.6 hPa NW 35.2 km/h 35.2 km/h 66 % 0.0 mm 262.0 W/m2 CLR
09:38 10.6 °C 4.2 °C 1024.6 hPa NNW 31.5 km/h 31.5 km/h 65 % 0.0 mm 276.0 W/m2 CLR
09:43 10.6 °C 4.2 °C 1024.3 hPa NW 31.5 km/h 31.5 km/h 65 % 0.0 mm 285.0 W/m2 CLR
09:48 11.1 °C 4.6 °C 1024.6 hPa NNW 30.6 km/h 30.6 km/h 64 % 0.0 mm 304.0 W/m2 CLR
09:53 11.1 °C 4.3 °C 1024.3 hPa NW 37.0 km/h 37.0 km/h 63 % 0.0 mm 316.0 W/m2 CLR
09:58 11.1 °C 4.1 °C 1024.3 hPa NNW 37.0 km/h 37.0 km/h 62 % 0.0 mm 329.0 W/m2 CLR
10:03 11.1 °C 4.1 °C 1024.6 hPa NNW 33.3 km/h 33.3 km/h 62 % 0.0 mm 338.0 W/m2 CLR
10:08 11.1 °C 4.1 °C 1024.3 hPa North 31.5 km/h 31.5 km/h 62 % 0.0 mm 355.0 W/m2 CLR
10:13 11.7 °C 4.4 °C 1024.6 hPa NW 40.7 km/h 40.7 km/h 61 % 0.0 mm 369.0 W/m2 CLR
10:18 11.7 °C 4.2 °C 1024.3 hPa NNW 31.5 km/h 31.5 km/h 60 % 0.0 mm 401.0 W/m2 CLR
10:23 11.7 °C 4.2 °C 1024.3 hPa NW 27.8 km/h 27.8 km/h 60 % 0.0 mm 353.0 W/m2 CLR
10:28 12.2 °C 4.4 °C 1024.3 hPa NW 37.0 km/h 37.0 km/h 59 % 0.0 mm 394.0 W/m2 CLR
10:33 12.2 °C 4.2 °C 1024.3 hPa NW 33.3 km/h 33.3 km/h 58 % 0.0 mm 410.0 W/m2 CLR
10:38 12.2 °C 4.2 °C 1024.6 hPa North 31.5 km/h 31.5 km/h 58 % 0.0 mm 427.0 W/m2 CLR
10:44 12.2 °C 3.9 °C 1024.3 hPa North 38.6 km/h 38.6 km/h 57 % 0.0 mm 422.0 W/m2 CLR
10:49 12.2 °C 3.9 °C 1024.6 hPa NNW 35.2 km/h 35.2 km/h 57 % 0.0 mm 427.0 W/m2 CLR
10:54 12.2 °C 3.7 °C 1024.6 hPa North 46.7 km/h 46.7 km/h 56 % 0.0 mm 431.0 W/m2 CLR
10:59 12.2 °C 3.9 °C 1024.6 hPa North 31.5 km/h 31.5 km/h 57 % 0.0 mm 445.0 W/m2 CLR
11:04 12.2 °C 3.7 °C 1024.6 hPa North 44.4 km/h 44.4 km/h 56 % 0.0 mm 459.0 W/m2 CLR
11:09 12.8 °C 4.2 °C 1024.6 hPa North 46.3 km/h 46.3 km/h 56 % 0.0 mm 466.0 W/m2 CLR
11:14 12.8 °C 4.2 °C 1024.3 hPa NNW 48.1 km/h 48.1 km/h 56 % 0.0 mm 473.0 W/m2 CLR
11:19 12.8 °C 4.2 °C 1024.3 hPa NNW 37.0 km/h 37.0 km/h 56 % 0.0 mm 482.0 W/m2 CLR
11:24 13.3 °C 4.5 °C 1024.3 hPa NNW 42.6 km/h 42.6 km/h 55 % 0.0 mm 489.0 W/m2 CLR
11:29 13.3 °C 4.5 °C 1024.6 hPa North 46.3 km/h 46.3 km/h 55 % 0.0 mm 492.0 W/m2 CLR
11:34 13.3 °C 4.5 °C 1024.3 hPa NNW 42.6 km/h 42.6 km/h 55 % 0.0 mm 496.0 W/m2 CLR
11:39 13.3 °C 4.5 °C 1024.3 hPa North 44.4 km/h 44.4 km/h 55 % 0.0 mm 501.0 W/m2 CLR
11:44 13.3 °C 4.5 °C 1024.3 hPa NNW 42.6 km/h 42.6 km/h 55 % 0.0 mm 519.0 W/m2 CLR
11:49 13.3 °C 4.5 °C 1024.3 hPa NW 35.2 km/h 35.2 km/h 55 % 0.0 mm 573.0 W/m2 CLR
11:54 12.8 °C 3.9 °C 1024.3 hPa North 42.6 km/h 42.6 km/h 55 % 0.0 mm 181.0 W/m2 CLR
11:59 12.8 °C 4.2 °C 1024.3 hPa NNE 27.8 km/h 27.8 km/h 56 % 0.0 mm 555.0 W/m2 CLR
12:04 13.3 °C 4.5 °C 1024.3 hPa NNW 31.5 km/h 31.5 km/h 55 % 0.0 mm 552.0 W/m2 CLR
12:09 13.3 °C 4.2 °C 1024.3 hPa North 42.6 km/h 42.6 km/h 54 % 0.0 mm 547.0 W/m2 CLR
12:14 13.3 °C 4.5 °C 1023.9 hPa NNW 33.3 km/h 33.3 km/h 55 % 0.0 mm 536.0 W/m2 CLR
12:19 13.3 °C 4.2 °C 1023.9 hPa North 42.6 km/h 42.6 km/h 54 % 0.0 mm 536.0 W/m2 CLR
12:24 13.9 °C 5.0 °C 1023.9 hPa NNW 33.3 km/h 33.3 km/h 55 % 0.0 mm 540.0 W/m2 CLR
12:29 13.9 °C 4.7 °C 1023.6 hPa NNW 51.8 km/h 51.8 km/h 54 % 0.0 mm 540.0 W/m2 CLR
12:34 13.9 °C 4.7 °C 1023.6 hPa NW 35.4 km/h 35.4 km/h 54 % 0.0 mm 543.0 W/m2 CLR
12:39 13.9 °C 4.7 °C 1023.6 hPa NNW 35.2 km/h 35.2 km/h 54 % 0.0 mm 526.0 W/m2 CLR
12:44 13.9 °C 4.2 °C 1023.6 hPa North 42.6 km/h 42.6 km/h 52 % 0.0 mm 508.0 W/m2 CLR
12:49 13.9 °C 4.4 °C 1023.9 hPa North 49.9 km/h 49.9 km/h 53 % 0.0 mm 526.0 W/m2 CLR
12:54 13.9 °C 4.2 °C 1023.6 hPa NNW 42.6 km/h 42.6 km/h 52 % 0.0 mm 536.0 W/m2 CLR
12:59 13.9 °C 4.4 °C 1023.6 hPa North 40.7 km/h 40.7 km/h 53 % 0.0 mm 541.0 W/m2 CLR
13:04 13.9 °C 4.2 °C 1023.2 hPa North 37.0 km/h 37.0 km/h 52 % 0.0 mm 538.0 W/m2 CLR
13:09 13.9 °C 3.9 °C 1023.6 hPa NNW 44.4 km/h 44.4 km/h 51 % 0.0 mm 543.0 W/m2 CLR
13:14 14.4 °C 4.4 °C 1023.6 hPa North 42.6 km/h 42.6 km/h 51 % 0.0 mm 540.0 W/m2 CLR
13:19 13.9 °C 4.2 °C 1023.6 hPa NNW 44.4 km/h 44.4 km/h 52 % 0.0 mm 540.0 W/m2 CLR
13:24 14.4 °C 4.4 °C 1023.2 hPa North 37.0 km/h 37.0 km/h 51 % 0.0 mm 557.0 W/m2 CLR
13:29 13.9 °C 3.6 °C 1023.2 hPa North 55.5 km/h 55.5 km/h 50 % 0.0 mm 559.0 W/m2 CLR
13:34 14.4 °C 4.4 °C 1023.2 hPa NW 38.9 km/h 38.9 km/h 51 % 0.0 mm 596.0 W/m2 CLR
13:39 14.4 °C 4.4 °C 1023.2 hPa NNW 51.8 km/h 51.8 km/h 51 % 0.0 mm 608.0 W/m2 CLR
13:44 14.4 °C 4.7 °C 1023.2 hPa North 37.0 km/h 37.0 km/h 52 % 0.0 mm 640.0 W/m2 CLR
13:49 14.4 °C 4.2 °C 1023.2 hPa NNE 42.6 km/h 42.6 km/h 50 % 0.0 mm 640.0 W/m2 CLR
13:59 14.4 °C 4.2 °C 1023.2 hPa NNW 37.0 km/h 37.0 km/h 50 % 0.0 mm 664.0 W/m2 CLR
14:04 14.4 °C 4.2 °C 1023.2 hPa NW 43.4 km/h 43.4 km/h 50 % 0.0 mm 628.0 W/m2 CLR
14:09 14.4 °C 4.2 °C 1023.2 hPa NNW 44.4 km/h 44.4 km/h 50 % 0.0 mm 659.0 W/m2 CLR
14:14 15.0 °C 4.7 °C 1022.9 hPa North 40.7 km/h 40.7 km/h 50 % 0.0 mm 508.0 W/m2 CLR
14:19 14.4 °C 4.2 °C 1023.2 hPa North 38.6 km/h 38.6 km/h 50 % 0.0 mm 584.0 W/m2 CLR
14:24 13.9 °C 3.9 °C 1023.2 hPa NNW 46.3 km/h 46.3 km/h 51 % 0.0 mm 376.0 W/m2 CLR
14:29 13.9 °C 4.2 °C 1023.2 hPa NNW 50.0 km/h 50.0 km/h 52 % 0.0 mm 352.0 W/m2 CLR
14:34 13.9 °C 4.2 °C 1023.2 hPa NNW 53.7 km/h 53.7 km/h 52 % 0.0 mm 429.0 W/m2 CLR
14:44 13.9 °C 4.4 °C 1023.2 hPa North 33.3 km/h 33.3 km/h 53 % 0.0 mm 390.0 W/m2 CLR
14:49 13.9 °C 4.2 °C 1023.2 hPa NW 33.3 km/h 33.3 km/h 52 % 0.0 mm 422.0 W/m2 CLR
14:54 13.9 °C 4.2 °C 1023.2 hPa NW 33.8 km/h 33.8 km/h 52 % 0.0 mm 281.0 W/m2 CLR
14:59 13.3 °C 3.7 °C 1023.2 hPa North 33.8 km/h 33.8 km/h 52 % 0.0 mm 332.0 W/m2 CLR
15:04 13.3 °C 3.7 °C 1023.2 hPa NNW 37.0 km/h 37.0 km/h 52 % 0.0 mm 278.0 W/m2 CLR
15:14 12.8 °C 3.4 °C 1023.6 hPa North 43.4 km/h 43.4 km/h 53 % 0.0 mm 214.0 W/m2 CLR
15:24 12.8 °C 3.7 °C 1023.2 hPa NW 27.8 km/h 27.8 km/h 54 % 0.0 mm 188.0 W/m2 CLR
15:29 12.8 °C 3.7 °C 1023.2 hPa NW 33.3 km/h 33.3 km/h 54 % 0.0 mm 178.0 W/m2 CLR
15:34 12.2 °C 3.2 °C 1023.2 hPa NNW 40.7 km/h 40.7 km/h 54 % 0.0 mm 163.0 W/m2 CLR
15:39 12.2 °C 3.4 °C 1023.2 hPa NNW 38.9 km/h 38.9 km/h 55 % 0.0 mm 160.0 W/m2 CLR
15:44 12.2 °C 3.4 °C 1023.2 hPa WNW 35.2 km/h 35.2 km/h 55 % 0.0 mm 160.0 W/m2 CLR
15:49 12.2 °C 3.4 °C 1023.2 hPa NNW 33.3 km/h 33.3 km/h 55 % 0.0 mm 144.0 W/m2 CLR
15:54 12.2 °C 3.4 °C 1023.2 hPa North 31.5 km/h 31.5 km/h 55 % 0.0 mm 132.0 W/m2 CLR
15:59 12.2 °C 3.4 °C 1023.2 hPa North 25.9 km/h 25.9 km/h 55 % 0.0 mm 121.0 W/m2 CLR
16:04 12.2 °C 3.4 °C 1023.2 hPa NNW 33.3 km/h 33.3 km/h 55 % 0.0 mm 118.0 W/m2 CLR
16:09 11.7 °C 3.2 °C 1023.2 hPa NW 31.5 km/h 31.5 km/h 56 % 0.0 mm 105.0 W/m2 CLR
16:14 11.7 °C 3.2 °C 1023.2 hPa NW 27.8 km/h 27.8 km/h 56 % 0.0 mm 102.0 W/m2 CLR
16:19 11.7 °C 2.9 °C 1023.6 hPa North 31.5 km/h 31.5 km/h 55 % 0.0 mm 100.0 W/m2 CLR
16:24 11.7 °C 2.9 °C 1023.6 hPa NNW 38.9 km/h 38.9 km/h 55 % 0.0 mm 95.0 W/m2 CLR
16:29 11.7 °C 2.9 °C 1023.6 hPa North 41.8 km/h 41.8 km/h 55 % 0.0 mm 86.0 W/m2 CLR
16:34 11.7 °C 2.9 °C 1023.6 hPa NNW 25.9 km/h 25.9 km/h 55 % 0.0 mm 72.0 W/m2 CLR
16:39 11.7 °C 3.2 °C 1023.9 hPa NNW 35.2 km/h 35.2 km/h 56 % 0.0 mm 63.0 W/m2 FEW
16:44 11.7 °C 3.2 °C 1023.9 hPa North 27.8 km/h 27.8 km/h 56 % 0.0 mm 54.0 W/m2 SCT
16:49 11.1 °C 2.7 °C 1023.9 hPa NNW 31.5 km/h 31.5 km/h 56 % 0.0 mm 53.0 W/m2 SCT
16:54 11.1 °C 2.9 °C 1023.9 hPa NNW 18.5 km/h 18.5 km/h 57 % 0.0 mm 49.0 W/m2 SCT
16:59 11.1 °C 2.9 °C 1023.9 hPa North 22.2 km/h 22.2 km/h 57 % 0.0 mm 42.0 W/m2 BKN
17:04 11.1 °C 2.9 °C 1023.9 hPa NNW 35.4 km/h 35.4 km/h 57 % 0.0 mm 37.0 W/m2 BKN
17:09 11.1 °C 3.2 °C 1023.9 hPa NNW 38.6 km/h 38.6 km/h 58 % 0.0 mm 32.0 W/m2 BKN
17:14 11.1 °C 3.2 °C 1023.9 hPa NNW 31.5 km/h 31.5 km/h 58 % 0.0 mm 28.0 W/m2 BKN
17:19 11.1 °C 3.2 °C 1023.9 hPa NNW 29.6 km/h 29.6 km/h 58 % 0.0 mm 26.0 W/m2 BKN
17:24 11.1 °C 3.2 °C 1023.9 hPa North 25.9 km/h 25.9 km/h 58 % 0.0 mm 23.0 W/m2 BKN
17:29 11.1 °C 3.4 °C 1023.9 hPa NNW 18.5 km/h 18.5 km/h 59 % 0.0 mm 16.0 W/m2 BKN
17:34 11.1 °C 3.4 °C 1023.9 hPa North 20.4 km/h 20.4 km/h 59 % 0.0 mm 12.0 W/m2 BKN
17:39 10.6 °C 2.9 °C 1023.9 hPa NW 20.9 km/h 20.9 km/h 59 % 0.0 mm 9.0 W/m2 BKN
17:44 10.6 °C 2.9 °C 1023.9 hPa NW 18.5 km/h 18.5 km/h 59 % 0.0 mm 5.0 W/m2 OVC
17:49 10.6 °C 2.9 °C 1023.9 hPa NW 31.5 km/h 31.5 km/h 59 % 0.0 mm 0.0 W/m2 OVC
17:54 10.6 °C 3.1 °C 1023.9 hPa NW 27.8 km/h 27.8 km/h 60 % 0.0 mm 0.0 W/m2 OVC
17:59 10.6 °C 3.1 °C 1023.9 hPa NW 27.8 km/h 27.8 km/h 60 % 0.0 mm 0.0 W/m2 CLR
18:04 10.0 °C 2.6 °C 1023.9 hPa NNW 24.1 km/h 24.1 km/h 60 % 0.0 mm 0.0 W/m2 CLR
18:09 10.0 °C 2.8 °C 1023.9 hPa North 42.6 km/h 42.6 km/h 61 % 0.0 mm 0.0 W/m2 CLR
18:14 10.0 °C 2.8 °C 1023.9 hPa NNW 24.1 km/h 24.1 km/h 61 % 0.0 mm 0.0 W/m2 CLR
18:20 10.0 °C 3.1 °C 1023.9 hPa North 37.0 km/h 37.0 km/h 62 % 0.0 mm 0.0 W/m2 CLR
18:25 10.0 °C 3.1 °C 1023.9 hPa North 37.0 km/h 37.0 km/h 62 % 0.0 mm 0.0 W/m2 CLR
18:30 10.0 °C 3.1 °C 1023.9 hPa NW 29.6 km/h 29.6 km/h 62 % 0.0 mm 0.0 W/m2 CLR
18:35 9.4 °C 2.5 °C 1023.9 hPa NNW 29.6 km/h 29.6 km/h 62 % 0.0 mm 0.0 W/m2 CLR
18:40 9.4 °C 2.5 °C 1023.9 hPa NW 35.2 km/h 35.2 km/h 62 % 0.0 mm 0.0 W/m2 CLR
18:45 9.4 °C 2.9 °C 1024.3 hPa North 44.4 km/h 44.4 km/h 64 % 0.0 mm 0.0 W/m2 CLR
18:50 9.4 °C 2.9 °C 1023.9 hPa NNW 37.0 km/h 37.0 km/h 64 % 0.0 mm 0.0 W/m2 CLR
18:55 9.4 °C 3.2 °C 1023.9 hPa NNW 37.0 km/h 37.0 km/h 65 % 0.0 mm 0.0 W/m2 CLR
19:00 9.4 °C 3.2 °C 1023.9 hPa NW 29.6 km/h 29.6 km/h 65 % 0.0 mm 0.0 W/m2 CLR
19:05 9.4 °C 3.2 °C 1024.3 hPa NNW 33.3 km/h 33.3 km/h 65 % 0.0 mm 0.0 W/m2 CLR
19:10 8.9 °C 2.9 °C 1024.3 hPa NNW 37.0 km/h 37.0 km/h 66 % 0.0 mm 0.0 W/m2 CLR
19:20 8.9 °C 2.9 °C 1024.6 hPa NNW 32.2 km/h 32.2 km/h 66 % 0.0 mm 0.0 W/m2 CLR
19:25 8.9 °C 2.9 °C 1024.6 hPa North 25.9 km/h 25.9 km/h 66 % 0.0 mm 0.0 W/m2 CLR
19:30 8.9 °C 2.9 °C 1024.6 hPa NW 20.4 km/h 20.4 km/h 66 % 0.0 mm 0.0 W/m2 CLR
19:40 8.3 °C 2.3 °C 1024.6 hPa NW 31.5 km/h 31.5 km/h 66 % 0.0 mm 0.0 W/m2 CLR
19:45 8.3 °C 2.3 °C 1024.9 hPa NW 29.6 km/h 29.6 km/h 66 % 0.0 mm 0.0 W/m2 CLR
19:50 8.3 °C 2.3 °C 1024.6 hPa WNW 20.4 km/h 20.4 km/h 66 % 0.0 mm 0.0 W/m2 CLR
19:55 8.3 °C 2.3 °C 1024.6 hPa NW 22.5 km/h 22.5 km/h 66 % 0.0 mm 0.0 W/m2 CLR
20:00 8.3 °C 2.3 °C 1024.6 hPa NW 31.5 km/h 31.5 km/h 66 % 0.0 mm 0.0 W/m2 CLR
20:05 8.3 °C 2.3 °C 1024.9 hPa NW 29.6 km/h 29.6 km/h 66 % 0.0 mm 0.0 W/m2 CLR
20:11 8.3 °C 2.3 °C 1024.6 hPa NW 25.9 km/h 25.9 km/h 66 % 0.0 mm 0.0 W/m2 CLR
20:16 8.3 °C 2.6 °C 1024.9 hPa NNW 31.5 km/h 31.5 km/h 67 % 0.0 mm 0.0 W/m2 CLR
20:21 8.3 °C 2.6 °C 1024.6 hPa NW 37.0 km/h 37.0 km/h 67 % 0.0 mm 0.0 W/m2 CLR
20:26 7.8 °C 2.2 °C 1024.9 hPa NW 25.9 km/h 25.9 km/h 68 % 0.0 mm 0.0 W/m2 CLR
20:31 7.8 °C 2.2 °C 1024.9 hPa NW 31.5 km/h 31.5 km/h 68 % 0.0 mm 0.0 W/m2 CLR
20:36 7.8 °C 2.4 °C 1025.3 hPa NW 31.5 km/h 31.5 km/h 69 % 0.0 mm 0.0 W/m2 CLR
20:41 7.8 °C 2.4 °C 1025.3 hPa NNW 35.2 km/h 35.2 km/h 69 % 0.0 mm 0.0 W/m2 CLR
20:46 7.8 °C 2.7 °C 1024.9 hPa NW 35.2 km/h 35.2 km/h 70 % 0.0 mm 0.0 W/m2 CLR
20:48 7.8 °C 2.7 °C 1024.9 hPa NW 35.2 km/h 35.2 km/h 70 % 0.0 mm 0.0 W/m2 CLR
20:53 7.8 °C 2.7 °C 1025.3 hPa NW 37.0 km/h 37.0 km/h 70 % 0.0 mm 0.0 W/m2 CLR
20:58 7.2 °C 2.3 °C 1025.3 hPa NW 33.3 km/h 33.3 km/h 71 % 0.0 mm 0.0 W/m2 CLR
21:03 7.2 °C 2.3 °C 1025.3 hPa NW 31.5 km/h 31.5 km/h 71 % 0.0 mm 0.0 W/m2 CLR
21:08 7.2 °C 2.5 °C 1025.3 hPa WNW 31.5 km/h 31.5 km/h 72 % 0.0 mm 0.0 W/m2 CLR
21:13 7.2 °C 2.5 °C 1025.3 hPa NW 27.8 km/h 27.8 km/h 72 % 0.0 mm 0.0 W/m2 CLR
21:18 7.2 °C 2.5 °C 1025.3 hPa NW 31.5 km/h 31.5 km/h 72 % 0.0 mm 0.0 W/m2 CLR
21:23 7.2 °C 2.7 °C 1025.3 hPa NW 38.9 km/h 38.9 km/h 73 % 0.0 mm 0.0 W/m2 CLR
21:28 7.2 °C 2.5 °C 1025.6 hPa NW 32.2 km/h 32.2 km/h 72 % 0.0 mm 0.0 W/m2 CLR
21:33 7.2 °C 2.7 °C 1025.6 hPa NW 29.6 km/h 29.6 km/h 73 % 0.0 mm 0.0 W/m2 CLR
21:38 7.2 °C 2.7 °C 1026.0 hPa NW 22.2 km/h 22.2 km/h 73 % 0.0 mm 0.0 W/m2 CLR
21:43 7.2 °C 2.7 °C 1026.0 hPa NW 18.5 km/h 18.5 km/h 73 % 0.0 mm 0.0 W/m2 CLR
21:48 6.7 °C 2.2 °C 1026.0 hPa NNW 18.5 km/h 18.5 km/h 73 % 0.0 mm 0.0 W/m2 CLR
21:53 6.7 °C 2.2 °C 1026.0 hPa NW 25.9 km/h 25.9 km/h 73 % 0.0 mm 0.0 W/m2 CLR
21:58 6.7 °C 2.2 °C 1026.0 hPa NW 24.1 km/h 24.1 km/h 73 % 0.0 mm 0.0 W/m2 CLR
22:03 6.7 °C 2.2 °C 1026.0 hPa WNW 24.1 km/h 24.1 km/h 73 % 0.0 mm 0.0 W/m2 CLR
22:08 6.7 °C 2.2 °C 1026.3 hPa NW 29.6 km/h 29.6 km/h 73 % 0.0 mm 0.0 W/m2 CLR
22:13 6.7 °C 2.2 °C 1026.0 hPa NW 24.1 km/h 24.1 km/h 73 % 0.0 mm 0.0 W/m2 CLR
22:18 6.7 °C 2.2 °C 1026.0 hPa NW 24.1 km/h 24.1 km/h 73 % 0.0 mm 0.0 W/m2 CLR
22:23 6.7 °C 2.2 °C 1026.0 hPa NW 25.9 km/h 25.9 km/h 73 % 0.0 mm 0.0 W/m2 CLR
22:28 6.7 °C 2.2 °C 1026.3 hPa NW 16.7 km/h 16.7 km/h 73 % 0.0 mm 0.0 W/m2 CLR
22:33 6.7 °C 2.2 °C 1026.3 hPa NNW 20.9 km/h 20.9 km/h 73 % 0.0 mm 0.0 W/m2 CLR
22:38 6.7 °C 2.3 °C 1026.0 hPa NNW 22.2 km/h 22.2 km/h 74 % 0.0 mm 0.0 W/m2 CLR
22:43 6.7 °C 2.3 °C 1026.3 hPa NNW 29.6 km/h 29.6 km/h 74 % 0.0 mm 0.0 W/m2 CLR
22:48 6.7 °C 2.3 °C 1026.0 hPa NW 20.4 km/h 20.4 km/h 74 % 0.0 mm 0.0 W/m2 CLR
22:53 6.7 °C 2.6 °C 1026.3 hPa NW 31.5 km/h 31.5 km/h 75 % 0.0 mm 0.0 W/m2 CLR
22:58 6.7 °C 2.6 °C 1026.0 hPa WNW 25.9 km/h 25.9 km/h 75 % 0.0 mm 0.0 W/m2 CLR
23:03 6.1 °C 2.0 °C 1026.3 hPa NW 31.5 km/h 31.5 km/h 75 % 0.0 mm 0.0 W/m2 CLR
23:08 6.1 °C 2.0 °C 1026.0 hPa NW 33.3 km/h 33.3 km/h 75 % 0.0 mm 0.0 W/m2 CLR
23:13 6.7 °C 2.6 °C 1026.0 hPa NNW 25.9 km/h 25.9 km/h 75 % 0.0 mm 0.0 W/m2 CLR
23:18 6.7 °C 2.6 °C 1026.0 hPa WNW 27.8 km/h 27.8 km/h 75 % 0.0 mm 0.0 W/m2 CLR
23:24 6.1 °C 2.0 °C 1026.0 hPa NNW 22.2 km/h 22.2 km/h 75 % 0.0 mm 0.0 W/m2 CLR
23:29 6.1 °C 2.0 °C 1026.0 hPa NW 27.8 km/h 27.8 km/h 75 % 0.0 mm 0.0 W/m2 CLR
23:34 6.1 °C 2.0 °C 1026.0 hPa NW 29.6 km/h 29.6 km/h 75 % 0.0 mm 0.0 W/m2 CLR
23:39 6.1 °C 2.0 °C 1026.0 hPa NW 29.6 km/h 29.6 km/h 75 % 0.0 mm 0.0 W/m2 CLR
23:44 6.1 °C 2.0 °C 1026.0 hPa NW 27.4 km/h 27.4 km/h 75 % 0.0 mm 0.0 W/m2 CLR
23:49 6.1 °C 1.8 °C 1025.6 hPa NW 22.2 km/h 22.2 km/h 74 % 0.0 mm 0.0 W/m2 CLR
23:54 6.1 °C 2.0 °C 1026.0 hPa NNW 31.5 km/h 31.5 km/h 75 % 0.0 mm 0.0 W/m2 CLR
23:59 6.1 °C 1.8 °C 1026.0 hPa NW 31.5 km/h 31.5 km/h 74 % 0.0 mm 0.0 W/m2 CLR
Lo Temps de Massalio
Compliments of Weather Underground - 1.25 mb